Flight Briefing for CPX251

Departure Arrival
Ted Stevens Anchorage International Airport (PANC)
Click to view FAA NOTAMS
Huntsville International Airport (KHSV)
Click to view FAA NOTAMS
Departure Time Arrival Time
N/A N/A
Aircraft Distance
B767-300BDSF 2850nm
Departure METAR Arrival METAR
PANC 200953Z 35006KT 10SM FEW040 SCT060 BKN080 BKN200 01/M05 A2984 RMK AO2 SLP106 T00111050 KHSV 200953Z AUTO 00000KT 10SM CLR 02/00 A3025 RMK AO2 SLP242 T00220000
Suggested Route
TED YESKA NCA13 YXY J515 YYE J537 YPE J601 XD YWV J475 VLN J483 MOT ABR Q19 DSM J45 IRK FAM J151 VUZ


View recent IFR Routes data
Notes



Charts and Procedures

Charts for PANC
No chart available
Charts for KHSV
No chart available

Windy.com Weather Map